createdAt,value
2023-05-16T13:39:22.315Z,22.17
2023-05-16T13:40:22.476Z,22.17
2023-05-16T13:41:22.656Z,22.18
2023-05-16T13:42:22.978Z,22.20
2023-05-16T13:43:23.240Z,22.21
2023-05-16T13:44:23.526Z,22.21
2023-05-16T13:45:23.847Z,22.22
2023-05-16T13:46:24.137Z,22.22
2023-05-16T13:47:24.402Z,22.22
2023-05-16T13:48:25.621Z,22.22
2023-05-16T13:49:24.922Z,22.22
2023-05-16T13:50:25.275Z,22.22
2023-05-16T13:51:25.483Z,22.22
2023-05-16T13:52:25.768Z,22.24
2023-05-16T13:53:26.013Z,22.22
2023-05-16T13:54:26.280Z,22.24
2023-05-16T13:55:26.783Z,22.24
2023-05-16T13:56:26.850Z,22.24
2023-05-16T13:57:27.092Z,22.25
2023-05-16T13:58:27.348Z,22.27
2023-05-16T13:59:46.150Z,22.27
2023-05-16T14:00:43.319Z,22.28
2023-05-16T14:01:29.139Z,22.28
2023-05-16T14:02:28.268Z,22.30
2023-05-16T14:03:28.550Z,22.30
2023-05-16T14:04:28.789Z,22.31
2023-05-16T14:05:29.030Z,22.33
2023-05-16T14:06:29.287Z,22.35
2023-05-16T14:07:29.573Z,22.35
2023-05-16T14:08:29.796Z,22.36
2023-05-16T14:09:30.084Z,22.37
2023-05-16T14:10:30.444Z,22.39
2023-05-16T14:11:30.555Z,22.39
2023-05-16T14:12:30.785Z,22.39
2023-05-16T14:13:31.027Z,22.42
2023-05-16T14:14:31.297Z,22.42
2023-05-16T14:15:31.795Z,22.43
2023-05-16T14:16:31.829Z,22.45
2023-05-16T14:17:33.048Z,22.43
2023-05-16T14:18:32.289Z,22.46
2023-05-16T14:19:32.650Z,22.46
2023-05-16T14:20:32.767Z,22.47
2023-05-16T14:21:32.868Z,22.49
2023-05-16T14:22:33.128Z,22.47
2023-05-16T14:23:33.374Z,22.51
2023-05-16T14:24:33.545Z,22.52
2023-05-16T14:25:33.786Z,22.49
2023-05-16T14:26:34.042Z,22.52
2023-05-16T14:27:34.281Z,22.52
2023-05-16T14:28:34.558Z,22.52
